createdAt,value
2024-01-11T00:00:55.923Z,11.50
2024-01-11T00:01:55.903Z,12.10
2024-01-11T00:02:55.835Z,11.60
2024-01-11T00:03:55.844Z,12.20
2024-01-11T00:04:55.856Z,12.50
2024-01-11T00:05:55.920Z,12.10
2024-01-11T00:06:55.841Z,12.00
2024-01-11T00:07:55.807Z,12.00
2024-01-11T00:08:55.764Z,12.40
2024-01-11T00:09:55.761Z,12.30
2024-01-11T00:10:57.299Z,12.40
2024-01-11T00:11:55.735Z,12.10
2024-01-11T00:12:55.717Z,12.50
2024-01-11T00:13:55.734Z,12.20
2024-01-11T00:14:55.698Z,11.70
2024-01-11T00:15:55.775Z,13.00
2024-01-11T00:16:55.696Z,12.00
2024-01-11T00:17:55.808Z,12.20
2024-01-11T00:18:55.709Z,11.90
2024-01-11T00:19:55.660Z,11.60
2024-01-11T00:20:55.597Z,12.00
2024-01-11T00:21:55.603Z,12.50
2024-01-11T00:22:55.615Z,11.80
2024-01-11T00:23:55.568Z,12.60
2024-01-11T00:24:55.544Z,12.00
2024-01-11T00:25:55.588Z,12.60
2024-01-11T00:26:55.518Z,12.10
2024-01-11T00:27:55.873Z,12.10
2024-01-11T00:28:55.504Z,12.20
2024-01-11T00:29:55.502Z,12.20
2024-01-11T00:30:55.494Z,12.00
2024-01-11T00:31:55.509Z,12.40
2024-01-11T00:32:55.566Z,11.90
2024-01-11T00:33:55.678Z,12.80
2024-01-11T00:34:55.459Z,12.80
2024-01-11T00:35:55.405Z,12.10
2024-01-11T00:36:55.386Z,12.20
2024-01-11T00:37:55.406Z,12.70
2024-01-11T00:38:55.367Z,12.20
2024-01-11T00:39:55.369Z,12.90
2024-01-11T00:40:55.337Z,12.50
2024-01-11T00:41:55.322Z,12.00
2024-01-11T00:42:55.315Z,13.00
2024-01-11T00:43:55.354Z,12.90
2024-01-11T00:44:55.280Z,12.10
2024-01-11T00:45:55.260Z,12.10
2024-01-11T00:46:55.256Z,12.10
2024-01-11T00:47:55.415Z,12.50
2024-01-11T00:48:56.905Z,12.70
2024-01-11T00:49:55.315Z,12.60
2024-01-11T00:50:55.196Z,12.20
2024-01-11T00:51:55.194Z,12.40
2024-01-11T00:52:55.200Z,12.00
2024-01-11T00:53:55.164Z,12.00
2024-01-11T00:54:55.140Z,12.70
2024-01-11T00:55:55.423Z,12.20
2024-01-11T00:56:55.113Z,11.80
2024-01-11T00:57:55.117Z,12.50
2024-01-11T00:58:55.105Z,12.30
2024-01-11T00:59:55.084Z,11.80
2024-01-11T01:00:55.109Z,12.00
2024-01-11T01:01:55.072Z,12.60
2024-01-11T01:02:55.044Z,12.10
2024-01-11T01:03:55.089Z,12.10
2024-01-11T01:04:55.024Z,12.80
2024-01-11T01:05:55.117Z,12.00
2024-01-11T01:06:54.997Z,12.40
2024-01-11T01:07:55.400Z,11.90
2024-01-11T01:08:54.994Z,12.00
2024-01-11T01:09:55.005Z,12.20
2024-01-11T01:10:54.984Z,11.80
2024-01-11T01:11:54.999Z,11.80
2024-01-11T01:12:54.925Z,12.10
2024-01-11T01:13:54.939Z,12.30
2024-01-11T01:14:54.885Z,12.30
2024-01-11T01:15:54.870Z,12.10
2024-01-11T01:16:54.890Z,12.00
2024-01-11T01:17:55.028Z,11.80
2024-01-11T01:18:54.894Z,12.70
2024-01-11T01:19:54.909Z,12.10
2024-01-11T01:20:54.806Z,11.70
2024-01-11T01:21:54.792Z,12.30
2024-01-11T01:22:54.808Z,12.40
2024-01-11T01:23:54.825Z,12.60
2024-01-11T01:24:54.785Z,12.10
2024-01-11T01:25:54.949Z,12.90
2024-01-11T01:26:54.715Z,12.50
2024-01-11T01:27:54.725Z,12.60
2024-01-11T01:28:54.741Z,11.90
2024-01-11T01:29:54.685Z,12.10
2024-01-11T01:30:54.735Z,12.20
2024-01-11T01:31:54.702Z,12.00
2024-01-11T01:32:54.771Z,12.10
2024-01-11T01:33:54.682Z,12.30
2024-01-11T01:34:54.655Z,13.20
2024-01-11T01:35:54.612Z,12.10
2024-01-11T01:36:54.657Z,12.40
2024-01-11T01:37:54.635Z,12.20
2024-01-11T01:38:54.565Z,11.90
2024-01-11T01:39:54.558Z,12.20
2024-01-11T01:40:54.713Z,12.30
2024-01-11T01:41:54.518Z,12.20
2024-01-11T01:42:54.518Z,12.20
2024-01-11T01:43:54.594Z,11.90
2024-01-11T01:44:54.490Z,12.20
2024-01-11T01:45:54.471Z,12.20
2024-01-11T01:46:54.566Z,12.10
2024-01-11T01:47:54.518Z,12.10
2024-01-11T01:48:54.465Z,12.00
2024-01-11T01:49:54.482Z,12.50
2024-01-11T01:50:54.428Z,12.50
2024-01-11T01:51:54.385Z,12.50
2024-01-11T01:52:54.426Z,11.80
2024-01-11T01:53:54.361Z,12.10
2024-01-11T01:54:54.347Z,12.10
2024-01-11T01:55:54.344Z,11.70
2024-01-11T01:56:54.335Z,12.80
2024-01-11T01:57:54.325Z,12.10
2024-01-11T01:58:54.435Z,12.10
2024-01-11T01:59:54.279Z,12.50
2024-01-11T02:00:54.321Z,12.30
2024-01-11T02:01:54.273Z,12.20
2024-01-11T02:02:54.417Z,12.10
2024-01-11T02:03:54.301Z,12.10
2024-01-11T02:04:54.387Z,12.20
2024-01-11T02:05:54.298Z,12.20
2024-01-11T02:06:54.194Z,12.40
2024-01-11T02:07:54.222Z,12.10
2024-01-11T02:08:54.177Z,12.50
2024-01-11T02:09:54.174Z,12.30
2024-01-11T02:10:54.135Z,12.20
2024-01-11T02:11:54.112Z,12.30
2024-01-11T02:12:54.107Z,12.50
2024-01-11T02:13:54.136Z,12.40
2024-01-11T02:14:54.093Z,12.70
2024-01-11T02:15:54.082Z,12.40
2024-01-11T02:16:54.128Z,12.70
2024-01-11T02:17:54.185Z,12.20
2024-01-11T02:18:54.158Z,12.60
2024-01-11T02:19:54.045Z,12.10
2024-01-11T02:20:54.101Z,12.20
2024-01-11T02:21:54.003Z,12.40
2024-01-11T02:22:54.069Z,11.50
2024-01-11T02:23:53.960Z,12.00
2024-01-11T02:24:53.972Z,12.70
2024-01-11T02:25:54.001Z,12.60
2024-01-11T02:26:53.930Z,12.70
2024-01-11T02:27:53.911Z,12.60
2024-01-11T02:28:53.919Z,12.80
2024-01-11T02:29:53.897Z,12.60
2024-01-11T02:30:53.989Z,12.30
2024-01-11T02:31:53.897Z,12.40
2024-01-11T02:32:54.033Z,11.80
2024-01-11T02:33:53.936Z,12.40
2024-01-11T02:34:53.889Z,12.10
2024-01-11T02:35:53.857Z,12.20
2024-01-11T02:36:53.798Z,12.60
2024-01-11T02:37:53.833Z,12.10
2024-01-11T02:38:53.777Z,12.60
2024-01-11T02:39:53.758Z,12.70
2024-01-11T02:40:53.769Z,12.90
2024-01-11T02:41:53.724Z,12.20
2024-01-11T02:42:53.737Z,13.10
2024-01-11T02:43:53.726Z,12.60
2024-01-11T02:44:53.692Z,13.20
2024-01-11T02:45:53.676Z,13.30
2024-01-11T02:46:53.694Z,13.00
2024-01-11T02:47:53.722Z,12.70
2024-01-11T02:48:53.789Z,12.80
2024-01-11T02:49:53.672Z,12.50
2024-01-11T02:50:53.658Z,13.30
2024-01-11T02:51:53.590Z,12.10
2024-01-11T02:52:53.640Z,12.60
2024-01-11T02:53:53.575Z,11.90
2024-01-11T02:54:53.554Z,12.40
2024-01-11T02:55:53.589Z,12.30
2024-01-11T02:56:53.638Z,12.60
2024-01-11T02:57:53.513Z,12.40
2024-01-11T02:58:53.524Z,13.40
2024-01-11T02:59:53.495Z,12.70
2024-01-11T03:00:53.495Z,12.50
2024-01-11T03:01:53.515Z,12.60
2024-01-11T03:02:53.450Z,12.60
2024-01-11T03:03:53.461Z,12.50
2024-01-11T03:04:53.515Z,12.20
2024-01-11T03:05:53.608Z,12.80
2024-01-11T03:06:53.472Z,12.20
2024-01-11T03:07:53.424Z,12.60
2024-01-11T03:08:53.383Z,13.00
2024-01-11T03:09:53.357Z,13.00
2024-01-11T03:10:53.385Z,12.90
2024-01-11T03:11:53.354Z,12.80
2024-01-11T03:12:53.327Z,12.20
2024-01-11T03:13:53.390Z,12.50
2024-01-11T03:14:53.303Z,12.10
2024-01-11T03:15:53.300Z,12.90
2024-01-11T03:16:53.283Z,12.80
2024-01-11T03:17:53.546Z,13.50
2024-01-11T03:18:53.445Z,12.80
2024-01-11T03:19:53.263Z,12.70
2024-01-11T03:20:53.249Z,12.60
2024-01-11T03:21:53.228Z,12.50
2024-01-11T03:22:53.203Z,12.30
2024-01-11T03:23:53.164Z,12.70
2024-01-11T03:24:53.168Z,13.30
2024-01-11T03:25:53.136Z,12.70
2024-01-11T03:26:53.142Z,12.20
2024-01-11T03:27:53.128Z,12.30
2024-01-11T03:28:53.134Z,12.20
2024-01-11T03:29:53.104Z,13.30
2024-01-11T03:30:53.179Z,12.30
2024-01-11T03:31:53.065Z,13.10
2024-01-11T03:32:53.210Z,12.70
2024-01-11T03:33:53.232Z,13.30
2024-01-11T03:34:53.033Z,13.80
2024-01-11T03:35:53.003Z,13.20
2024-01-11T03:36:53.000Z,12.30
2024-01-11T03:37:53.002Z,13.10
2024-01-11T03:38:53.105Z,12.90
2024-01-11T03:39:52.960Z,12.90
2024-01-11T03:40:52.943Z,12.90
2024-01-11T03:41:52.928Z,12.90
2024-01-11T03:42:52.922Z,12.90
2024-01-11T03:43:52.941Z,13.00
2024-01-11T03:44:52.953Z,12.90
2024-01-11T03:45:52.885Z,13.20
2024-01-11T03:46:52.887Z,12.40
2024-01-11T03:47:52.946Z,13.50
2024-01-11T03:48:52.940Z,13.10
2024-01-11T03:49:52.848Z,12.70
2024-01-11T03:50:52.828Z,13.20
2024-01-11T03:51:52.810Z,13.30
2024-01-11T03:52:52.793Z,13.00
2024-01-11T03:53:52.874Z,12.90
2024-01-11T03:54:52.750Z,13.30
2024-01-11T03:55:52.745Z,12.60
2024-01-11T03:56:52.766Z,12.60
2024-01-11T03:57:52.726Z,12.70
2024-01-11T03:58:52.717Z,13.30
2024-01-11T03:59:52.725Z,12.50
2024-01-11T04:00:52.769Z,12.80
2024-01-11T04:01:52.657Z,12.70
2024-01-11T04:02:52.708Z,12.80
2024-01-11T04:03:52.688Z,12.70
2024-01-11T04:04:52.646Z,12.50
2024-01-11T04:05:52.710Z,12.90
2024-01-11T04:06:52.597Z,12.90
2024-01-11T04:07:52.600Z,12.80
2024-01-11T04:08:52.585Z,12.20
2024-01-11T04:09:52.939Z,12.30
2024-01-11T04:10:52.557Z,13.00
2024-01-11T04:11:52.527Z,12.60
2024-01-11T04:12:52.519Z,12.80
2024-01-11T04:13:52.553Z,12.80
2024-01-11T04:14:52.519Z,12.70
2024-01-11T04:15:52.487Z,13.00
2024-01-11T04:16:52.466Z,13.20
2024-01-11T04:17:52.639Z,13.70
2024-01-11T04:18:52.512Z,12.90
2024-01-11T04:19:52.423Z,13.30
2024-01-11T04:20:52.417Z,13.50
2024-01-11T04:21:52.395Z,12.90
2024-01-11T04:22:52.385Z,13.30
2024-01-11T04:23:52.423Z,13.20
2024-01-11T04:24:52.396Z,12.90
2024-01-11T04:25:52.355Z,13.00
2024-01-11T04:26:52.336Z,13.10
2024-01-11T04:27:52.330Z,13.20
2024-01-11T04:28:52.323Z,13.10
2024-01-11T04:29:52.342Z,12.80
2024-01-11T04:30:52.336Z,13.40
2024-01-11T04:31:52.280Z,13.40
2024-01-11T04:32:52.332Z,13.20
2024-01-11T04:33:52.360Z,13.30
2024-01-11T04:34:52.256Z,13.10
2024-01-11T04:35:52.271Z,13.60
2024-01-11T04:36:52.217Z,12.80
2024-01-11T04:37:52.184Z,13.20
2024-01-11T04:38:52.187Z,13.60
2024-01-11T04:39:52.195Z,12.90
2024-01-11T04:40:52.146Z,13.10
2024-01-11T04:41:52.124Z,13.30
2024-01-11T04:42:52.120Z,13.50
2024-01-11T04:43:52.129Z,12.90
2024-01-11T04:44:52.128Z,12.50
2024-01-11T04:45:52.070Z,13.30
2024-01-11T04:46:52.081Z,13.30
2024-01-11T04:47:52.210Z,13.40
2024-01-11T04:48:52.225Z,13.10
2024-01-11T04:49:52.052Z,13.30
2024-01-11T04:50:52.149Z,13.10
2024-01-11T04:51:51.993Z,13.20
2024-01-11T04:52:52.001Z,13.10
2024-01-11T04:53:52.008Z,13.50
2024-01-11T04:54:51.976Z,13.00
2024-01-11T04:55:51.974Z,12.90
2024-01-11T04:56:51.945Z,13.20
2024-01-11T04:57:51.921Z,13.70
2024-01-11T04:58:51.922Z,13.10
2024-01-11T04:59:51.933Z,13.80
2024-01-11T05:00:51.917Z,13.20
2024-01-11T05:01:51.874Z,12.50
2024-01-11T05:02:51.909Z,13.00
2024-01-11T05:03:51.875Z,12.90
2024-01-11T05:04:51.861Z,13.20
2024-01-11T05:05:51.874Z,13.70
2024-01-11T05:06:51.885Z,13.00
2024-01-11T05:07:51.790Z,12.70
2024-01-11T05:08:51.813Z,12.90
2024-01-11T05:09:51.773Z,12.40
2024-01-11T05:10:51.756Z,12.80
2024-01-11T05:11:51.770Z,12.70
2024-01-11T05:12:51.713Z,13.50
2024-01-11T05:13:51.710Z,12.70
2024-01-11T05:14:51.702Z,13.10
2024-01-11T05:15:51.672Z,13.10
2024-01-11T05:16:51.694Z,12.60
2024-01-11T05:17:51.818Z,12.60
2024-01-11T05:18:51.735Z,13.00
2024-01-11T05:19:51.633Z,12.70
2024-01-11T05:20:51.667Z,12.80
2024-01-11T05:21:51.625Z,13.10
2024-01-11T05:22:51.599Z,12.50
2024-01-11T05:23:51.571Z,12.40
2024-01-11T05:24:51.558Z,12.10
2024-01-11T05:25:51.557Z,13.50
2024-01-11T05:26:51.599Z,13.90
2024-01-11T05:27:51.532Z,12.80
2024-01-11T05:28:51.503Z,13.40
2024-01-11T05:29:51.514Z,13.00
2024-01-11T05:30:51.618Z,13.10
2024-01-11T05:31:51.620Z,13.00
2024-01-11T05:32:51.504Z,13.60
2024-01-11T05:33:51.580Z,13.10
2024-01-11T05:34:51.450Z,12.80
2024-01-11T05:35:51.422Z,13.50
2024-01-11T05:36:51.403Z,13.40
2024-01-11T05:37:51.533Z,12.80
2024-01-11T05:38:51.373Z,13.70
2024-01-11T05:39:51.367Z,13.30
2024-01-11T05:40:51.363Z,13.40
2024-01-11T05:41:51.361Z,13.50
2024-01-11T05:42:51.334Z,13.60
2024-01-11T05:43:51.317Z,13.40
2024-01-11T05:44:51.317Z,12.30
2024-01-11T05:45:51.318Z,13.50
2024-01-11T05:46:51.290Z,13.50
2024-01-11T05:47:51.350Z,13.70
2024-01-11T05:48:51.366Z,13.20
2024-01-11T05:49:51.247Z,13.40
2024-01-11T05:50:51.243Z,13.40
2024-01-11T05:51:51.228Z,13.00
2024-01-11T05:52:51.195Z,13.40
2024-01-11T05:53:51.196Z,13.20
2024-01-11T05:54:51.191Z,12.50
2024-01-11T05:55:53.073Z,13.10
2024-01-11T05:56:51.157Z,13.20
2024-01-11T05:57:51.120Z,12.70
2024-01-11T05:58:51.137Z,13.30
2024-01-11T05:59:51.111Z,12.80
2024-01-11T06:00:51.174Z,13.00
2024-01-11T06:01:51.118Z,12.50
2024-01-11T06:02:51.327Z,12.90
2024-01-11T06:03:51.175Z,12.80
2024-01-11T06:04:51.074Z,13.70
2024-01-11T06:05:51.675Z,13.30
2024-01-11T06:06:51.642Z,13.40
2024-01-11T06:07:51.081Z,12.80
2024-01-11T06:08:51.040Z,12.90
2024-01-11T06:09:51.013Z,13.30
2024-01-11T06:10:51.192Z,13.40
2024-01-11T06:11:50.995Z,13.10
2024-01-11T06:12:50.937Z,12.60
2024-01-11T06:13:50.937Z,12.70
2024-01-11T06:14:51.056Z,13.10
2024-01-11T06:15:50.903Z,12.90
2024-01-11T06:16:50.891Z,12.60
2024-01-11T06:17:51.020Z,13.20
2024-01-11T06:18:50.981Z,12.40
2024-01-11T06:19:50.847Z,13.00
2024-01-11T06:20:50.878Z,12.80
2024-01-11T06:21:50.840Z,12.30
2024-01-11T06:22:51.894Z,12.70
2024-01-11T06:23:51.122Z,13.20
2024-01-11T06:24:50.872Z,13.00
2024-01-11T06:25:50.802Z,12.70
2024-01-11T06:26:51.009Z,12.60
2024-01-11T06:27:50.793Z,12.30
2024-01-11T06:28:50.724Z,12.30
2024-01-11T06:29:50.736Z,13.00
2024-01-11T06:30:51.139Z,12.80
2024-01-11T06:41:48.974Z,14.60
2024-01-11T06:42:49.545Z,13.80
2024-01-11T06:43:48.145Z,13.30
2024-01-11T06:44:49.086Z,13.90
2024-01-11T06:45:48.291Z,13.90
2024-01-11T06:46:48.280Z,13.80
2024-01-11T06:47:49.040Z,13.80
2024-01-11T06:48:49.498Z,13.70
2024-01-11T06:49:52.839Z,13.70
2024-01-11T06:50:57.241Z,13.50
2024-01-11T06:52:16.348Z,14.20
2024-01-11T06:55:35.794Z,13.90
2024-01-11T06:59:47.273Z,14.20
2024-01-11T07:00:24.221Z,13.80
2024-01-11T07:04:31.345Z,13.60
2024-01-11T07:12:52.572Z,12.70
2024-01-11T07:13:48.545Z,13.20
2024-01-11T07:14:44.081Z,13.60
2024-01-11T07:16:19.297Z,13.70
2024-01-11T07:16:58.391Z,13.20
2024-01-11T07:17:46.024Z,13.40
2024-01-11T07:18:50.818Z,13.90
2024-01-11T07:19:50.227Z,13.90
2024-01-11T07:20:44.794Z,13.40
2024-01-11T07:21:46.450Z,13.10
2024-01-11T07:22:48.300Z,13.60
2024-01-11T07:23:48.305Z,14.20
2024-01-11T07:24:46.192Z,13.50
2024-01-11T07:25:43.512Z,12.90
2024-01-11T07:29:30.319Z,12.50
2024-01-11T07:29:49.775Z,13.20
2024-01-11T07:30:47.981Z,13.10
2024-01-11T07:31:50.435Z,13.10
2024-01-11T07:32:48.524Z,13.30
2024-01-11T07:33:53.232Z,12.20
2024-01-11T07:34:51.670Z,13.80
2024-01-11T07:38:17.760Z,13.10
2024-01-11T07:38:46.110Z,13.60
2024-01-11T07:40:35.473Z,13.40
2024-01-11T07:40:58.926Z,13.60
2024-01-11T07:44:16.521Z,13.40
2024-01-11T07:44:44.297Z,13.00
2024-01-11T07:45:44.359Z,12.80
2024-01-11T07:46:46.822Z,13.30
2024-01-11T07:47:37.409Z,12.90
2024-01-11T07:48:39.833Z,12.80
2024-01-11T07:49:44.038Z,13.00
2024-01-11T07:50:42.838Z,13.20
2024-01-11T07:56:56.044Z,13.00
2024-01-11T07:57:22.482Z,12.60
2024-01-11T07:58:23.752Z,12.20
2024-01-11T07:59:24.304Z,13.10
2024-01-11T08:00:17.834Z,12.20
2024-01-11T08:01:25.755Z,13.70
2024-01-11T08:02:18.308Z,13.00
2024-01-11T08:03:18.327Z,13.20
2024-01-11T08:04:31.480Z,12.60
2024-01-11T08:05:16.408Z,13.00
2024-01-11T08:06:12.779Z,12.50
2024-01-11T08:07:20.274Z,13.50
2024-01-11T08:08:21.796Z,12.60
2024-01-11T08:09:17.855Z,12.30
2024-01-11T08:15:42.630Z,12.50
2024-01-11T08:18:20.723Z,12.40
2024-01-11T08:18:27.435Z,12.50
2024-01-11T08:19:26.945Z,12.10
2024-01-11T08:20:27.088Z,12.70
2024-01-11T08:21:26.383Z,12.90
2024-01-11T08:22:27.850Z,12.60
2024-01-11T08:23:26.256Z,12.10
2024-01-11T08:24:27.456Z,13.20
2024-01-11T08:25:26.317Z,12.30
2024-01-11T08:26:25.991Z,13.70
2024-01-11T08:27:27.374Z,12.50
2024-01-11T08:28:26.161Z,12.70
2024-01-11T08:29:26.940Z,13.40
2024-01-11T08:30:26.227Z,13.10
2024-01-11T08:31:34.143Z,13.30
2024-01-11T08:32:32.275Z,12.30
2024-01-11T08:33:26.145Z,12.30
2024-01-11T08:34:26.138Z,12.50
2024-01-11T08:35:25.983Z,12.50
2024-01-11T08:36:29.109Z,13.20
2024-01-11T08:37:33.262Z,13.00
2024-01-11T08:38:43.514Z,13.50
2024-01-11T08:39:27.807Z,12.90
2024-01-11T08:40:26.823Z,13.70
2024-01-11T08:41:26.003Z,13.10
2024-01-11T08:42:26.007Z,14.20
2024-01-11T08:43:26.104Z,13.30
2024-01-11T08:44:43.889Z,14.10
2024-01-11T08:45:41.220Z,13.90
2024-01-11T08:47:58.018Z,14.70
2024-01-11T08:49:10.407Z,13.90
2024-01-11T08:49:26.769Z,13.80
2024-01-11T08:50:46.445Z,13.60
2024-01-11T08:54:05.003Z,13.90
2024-01-11T08:54:22.573Z,14.50
2024-01-11T08:55:25.997Z,13.50
2024-01-11T08:56:21.360Z,13.20
2024-01-11T08:57:28.153Z,14.60
2024-01-11T08:58:23.785Z,14.80
2024-01-11T08:59:36.004Z,14.20
2024-01-11T09:00:20.571Z,13.90
2024-01-11T09:01:29.309Z,13.60
2024-01-11T09:02:37.051Z,13.60
2024-01-11T09:16:17.844Z,13.30
2024-01-11T09:17:25.725Z,12.80
2024-01-11T09:18:13.316Z,13.50
2024-01-11T09:19:08.073Z,13.40
2024-01-11T09:20:09.324Z,14.20
2024-01-11T09:23:54.651Z,14.10
2024-01-11T09:24:18.116Z,14.60
2024-01-11T09:25:17.795Z,14.20
2024-01-11T09:26:30.134Z,13.70
2024-01-11T09:27:17.630Z,14.50
2024-01-11T09:28:33.701Z,14.30
2024-01-11T09:29:21.876Z,13.50
2024-01-11T09:30:19.283Z,13.90
2024-01-11T09:32:54.551Z,13.40
2024-01-11T09:33:47.369Z,13.80
2024-01-11T09:34:22.639Z,13.70
2024-01-11T09:37:01.087Z,13.10
2024-01-11T09:37:25.563Z,13.70
2024-01-11T09:38:44.367Z,13.70
2024-01-11T09:39:30.402Z,13.40
2024-01-11T09:40:20.495Z,14.20
2024-01-11T09:41:21.232Z,13.60
2024-01-11T09:42:26.319Z,13.80
2024-01-11T09:43:38.392Z,14.00
2024-01-11T09:44:25.728Z,13.30
2024-01-11T09:46:35.681Z,13.80
2024-01-11T09:46:58.701Z,13.70
2024-01-11T09:47:44.210Z,13.40
2024-01-11T09:48:50.301Z,14.30
2024-01-11T12:18:02.006Z,15.40
2024-01-11T12:19:02.831Z,16.00
2024-01-11T12:20:02.817Z,15.40
2024-01-11T12:21:02.718Z,15.40
2024-01-11T12:22:02.791Z,16.10
2024-01-11T12:23:02.689Z,16.30
2024-01-11T12:24:02.668Z,15.90
2024-01-11T12:25:02.661Z,15.80
2024-01-11T12:26:03.718Z,15.60
2024-01-11T12:27:02.689Z,15.70
2024-01-11T12:28:02.655Z,15.60
2024-01-11T12:29:02.672Z,15.20
2024-01-11T12:30:02.717Z,14.50
2024-01-11T12:31:02.696Z,15.10
2024-01-11T12:32:02.689Z,16.30
2024-01-11T12:33:02.725Z,15.20
2024-01-11T12:34:02.572Z,15.20
2024-01-11T12:35:02.595Z,14.70
2024-01-11T12:36:02.511Z,15.00
2024-01-11T12:37:02.538Z,14.70
2024-01-11T12:38:03.101Z,15.00
2024-01-11T12:39:02.513Z,14.80
2024-01-11T12:40:02.544Z,15.70
2024-01-11T12:41:02.526Z,15.00
2024-01-11T12:42:03.113Z,14.80
2024-01-11T12:43:02.513Z,15.90
2024-01-11T12:44:02.560Z,15.30
2024-01-11T12:45:02.597Z,15.10
2024-01-11T12:46:02.400Z,14.90
2024-01-11T12:47:02.527Z,15.50
2024-01-11T12:48:02.546Z,14.60
2024-01-11T12:49:02.652Z,15.30
2024-01-11T12:50:02.478Z,14.40
2024-01-11T12:51:10.911Z,14.80
2024-01-11T12:52:02.353Z,14.80
2024-01-11T12:53:02.366Z,15.20
2024-01-11T12:54:02.504Z,15.70
2024-01-11T12:55:02.316Z,14.40
2024-01-11T12:56:02.399Z,15.30
2024-01-11T12:57:02.548Z,14.80
2024-01-11T12:58:02.283Z,15.90
2024-01-11T12:59:02.474Z,15.60
2024-01-11T13:00:02.207Z,15.10
2024-01-11T13:01:03.151Z,15.70
2024-01-11T13:02:02.244Z,15.10
2024-01-11T13:03:02.163Z,15.20
2024-01-11T13:04:02.236Z,15.50
2024-01-11T13:05:02.213Z,15.30
2024-01-11T13:06:02.188Z,15.50
2024-01-11T13:07:02.110Z,15.10
2024-01-11T13:08:02.217Z,14.60
2024-01-11T13:09:02.536Z,15.10
2024-01-11T13:10:02.043Z,15.90
2024-01-11T13:11:02.058Z,15.10
2024-01-11T13:12:02.014Z,15.40
2024-01-11T13:13:08.930Z,15.50
2024-01-11T13:14:02.566Z,16.20
2024-01-11T13:15:01.989Z,15.90
2024-01-11T13:16:01.978Z,14.30
2024-01-11T13:17:01.995Z,14.50
2024-01-11T13:18:02.124Z,15.70
2024-01-11T13:19:02.275Z,15.40
2024-01-11T13:20:02.715Z,15.10
2024-01-11T13:21:01.974Z,14.80
2024-01-11T13:22:02.592Z,15.20
2024-01-11T13:23:01.936Z,14.90
2024-01-11T13:24:01.880Z,14.80
2024-01-11T13:25:01.860Z,15.30
2024-01-11T13:26:01.940Z,16.00
2024-01-11T13:27:01.906Z,15.70
2024-01-11T13:28:01.840Z,15.40
2024-01-11T13:29:01.812Z,15.50
2024-01-11T13:30:01.780Z,15.80
2024-01-11T13:31:01.810Z,15.10
2024-01-11T13:32:03.731Z,15.10
2024-01-11T13:33:01.969Z,14.80
2024-01-11T13:34:02.008Z,15.40
2024-01-11T13:35:01.831Z,15.00
2024-01-11T13:36:01.812Z,14.80
2024-01-11T13:37:01.837Z,15.60
2024-01-11T13:38:01.725Z,14.90
2024-01-11T13:39:02.130Z,14.90
2024-01-11T13:40:01.697Z,14.60
2024-01-11T13:41:02.638Z,14.90
2024-01-11T13:42:01.654Z,15.70
2024-01-11T13:43:01.633Z,14.90
2024-01-11T13:44:01.633Z,14.60
2024-01-11T13:45:02.158Z,15.70
2024-01-11T13:46:01.624Z,14.60
2024-01-11T13:47:01.690Z,13.30
2024-01-11T13:48:01.708Z,15.30
2024-01-11T13:49:02.176Z,14.60
2024-01-11T13:50:02.171Z,15.00
2024-01-11T13:51:01.690Z,15.30
2024-01-11T13:52:02.256Z,15.40
2024-01-11T13:53:01.939Z,15.20
2024-01-11T13:54:01.457Z,14.80
2024-01-11T13:55:01.560Z,14.70
2024-01-11T13:56:01.523Z,14.20
2024-01-11T13:57:01.437Z,14.20
2024-01-11T13:58:01.451Z,14.90
2024-01-11T13:59:01.390Z,14.20
2024-01-11T14:00:01.374Z,14.70
2024-01-11T14:01:01.446Z,13.60
2024-01-11T14:02:01.359Z,13.60
2024-01-11T14:03:01.443Z,14.10
2024-01-11T14:04:01.335Z,14.70
2024-01-11T14:05:01.308Z,14.80
2024-01-11T14:06:01.500Z,14.30
2024-01-11T14:07:01.294Z,14.80
2024-01-11T14:08:01.289Z,14.50
2024-01-11T14:09:01.262Z,14.20
2024-01-11T14:10:01.251Z,14.40
2024-01-11T14:11:01.263Z,13.90
2024-01-11T14:12:01.255Z,14.20
2024-01-11T14:13:01.218Z,14.30
2024-01-11T14:14:01.526Z,13.50
2024-01-11T14:15:01.185Z,14.00
2024-01-11T14:16:01.180Z,14.60
2024-01-11T14:17:01.158Z,13.70
2024-01-11T14:18:01.455Z,13.30
2024-01-11T14:19:01.606Z,13.70
2024-01-11T14:20:01.426Z,14.10
2024-01-11T14:21:01.186Z,14.70
2024-01-11T14:22:01.128Z,14.00
2024-01-11T14:23:01.140Z,13.80
2024-01-11T14:24:01.541Z,13.80
2024-01-11T14:25:01.081Z,13.60
2024-01-11T14:26:01.566Z,13.70
2024-01-11T14:27:01.033Z,14.20
2024-01-11T14:28:01.024Z,14.10
2024-01-11T14:29:01.007Z,14.10
2024-01-11T14:30:00.986Z,13.80
2024-01-11T14:31:00.992Z,13.90
2024-01-11T14:32:00.978Z,14.10
2024-01-11T14:33:01.061Z,13.60
2024-01-11T14:34:01.074Z,13.10
2024-01-11T14:35:00.979Z,13.30
2024-01-11T14:36:01.141Z,13.10
2024-01-11T14:37:00.915Z,14.10
2024-01-11T14:38:00.890Z,13.70
2024-01-11T14:39:00.866Z,13.80
2024-01-11T14:40:00.880Z,13.80
2024-01-11T14:41:00.861Z,13.50
2024-01-11T14:42:00.881Z,14.10
2024-01-11T14:43:00.808Z,13.70
2024-01-11T14:44:00.810Z,13.10
2024-01-11T14:45:00.945Z,12.90
2024-01-11T14:46:00.847Z,12.90
2024-01-11T14:47:00.784Z,12.70
2024-01-11T14:48:00.881Z,13.00
2024-01-11T14:49:00.869Z,12.80
2024-01-11T14:50:00.726Z,13.10
2024-01-11T14:51:00.800Z,12.80
2024-01-11T14:52:00.702Z,13.20
2024-01-11T14:53:00.701Z,13.00
2024-01-11T14:54:00.668Z,13.20
2024-01-11T14:55:00.781Z,13.50
2024-01-11T14:56:00.669Z,12.80
2024-01-11T14:57:00.618Z,13.00
2024-01-11T14:58:02.290Z,13.80
2024-01-11T14:59:00.594Z,13.30
2024-01-11T15:00:00.696Z,13.20
2024-01-11T15:01:00.626Z,12.80
2024-01-11T15:02:00.572Z,12.70
2024-01-11T15:03:00.777Z,12.70
2024-01-11T15:04:00.561Z,12.60
2024-01-11T15:05:00.559Z,13.30
2024-01-11T15:06:00.664Z,12.20
2024-01-11T15:07:00.682Z,12.80
2024-01-11T15:08:00.496Z,12.40
2024-01-11T15:09:00.511Z,13.10
2024-01-11T15:10:00.461Z,12.60
2024-01-11T15:11:00.467Z,12.50
2024-01-11T15:12:00.434Z,12.60
2024-01-11T15:13:00.447Z,12.70
2024-01-11T15:14:00.443Z,12.70
2024-01-11T15:15:00.507Z,12.00
2024-01-11T15:16:00.605Z,13.20
2024-01-11T15:17:00.383Z,13.50
2024-01-11T15:18:00.709Z,12.20
2024-01-11T15:19:00.437Z,11.90
2024-01-11T15:20:00.638Z,12.60
2024-01-11T15:21:00.355Z,12.40
2024-01-11T15:22:00.308Z,12.20
2024-01-11T15:23:00.284Z,12.40
2024-01-11T15:24:00.369Z,12.30
2024-01-11T15:25:00.556Z,11.90
2024-01-11T15:26:00.244Z,12.00
2024-01-11T15:27:00.252Z,12.30
2024-01-11T15:28:00.234Z,12.50
2024-01-11T15:29:00.275Z,11.70
2024-01-11T15:30:00.411Z,12.00
2024-01-11T15:31:00.330Z,12.20
2024-01-11T15:32:00.168Z,12.10
2024-01-11T15:33:02.233Z,11.70
2024-01-11T15:34:00.355Z,12.90
2024-01-11T15:35:00.170Z,12.60
2024-01-11T15:36:00.237Z,12.20
2024-01-11T15:37:00.099Z,12.50
2024-01-11T15:38:00.098Z,11.70
2024-01-11T15:39:08.230Z,12.30
2024-01-11T15:40:00.200Z,12.10
2024-01-11T15:41:00.049Z,11.30
2024-01-11T15:42:00.173Z,11.70
2024-01-11T15:43:00.016Z,11.10
2024-01-11T15:44:00.032Z,10.80
2024-01-11T15:44:59.989Z,11.20
2024-01-11T15:46:00.057Z,11.60
2024-01-11T15:47:00.610Z,11.40
2024-01-11T15:48:00.060Z,11.50
2024-01-11T15:49:00.033Z,11.10
2024-01-11T15:49:59.938Z,10.40
2024-01-11T15:51:02.116Z,11.00
2024-01-11T15:51:59.914Z,10.70
2024-01-11T15:52:59.872Z,10.80
2024-01-11T15:53:59.877Z,10.70
2024-01-11T15:54:59.885Z,10.70
2024-01-11T15:55:59.885Z,11.20
2024-01-11T15:57:00.109Z,10.70
2024-01-11T15:58:02.664Z,11.70
2024-01-11T15:58:59.817Z,10.50
2024-01-11T15:59:59.819Z,10.80
2024-01-11T16:00:59.814Z,11.00
2024-01-11T16:02:06.323Z,10.80
2024-01-11T16:03:00.350Z,11.00
2024-01-11T16:03:59.837Z,11.70
2024-01-11T16:04:59.726Z,12.10
2024-01-11T16:05:59.886Z,11.30
2024-01-11T16:06:59.884Z,10.90
2024-01-11T16:07:59.697Z,11.50
2024-01-11T16:08:59.729Z,11.40
2024-01-11T16:09:59.683Z,11.70
2024-01-11T16:10:59.651Z,11.50
2024-01-11T16:12:03.641Z,11.20
2024-01-11T16:12:59.617Z,11.60
2024-01-11T16:14:00.088Z,11.10
2024-01-11T16:14:59.640Z,11.40
2024-01-11T16:15:59.674Z,11.20
2024-01-11T16:16:59.598Z,12.20
2024-01-11T16:17:59.694Z,11.90
2024-01-11T16:18:59.585Z,11.90
2024-01-11T16:19:59.553Z,11.90
2024-01-11T16:20:59.549Z,11.70
2024-01-11T16:21:59.497Z,12.10
2024-01-11T16:22:59.495Z,11.60
2024-01-11T16:24:02.668Z,12.30